sensor_id;sensor_type;location;lat;lon;timestamp;pressure;altitude;pressure_sealevel;temperature;humidity
68941;BME280;55982;51.476;7.552;2023-06-04T00:02:07;100228.88;;;10.53;100.00
68941;BME280;55982;51.476;7.552;2023-06-04T00:04:33;100227.50;;;10.40;100.00
68941;BME280;55982;51.476;7.552;2023-06-04T00:06:58;100227.91;;;10.25;100.00
68941;BME280;55982;51.476;7.552;2023-06-04T00:09:24;100223.88;;;10.10;100.00
68941;BME280;55982;51.476;7.552;2023-06-04T00:11:49;100221.28;;;10.09;100.00
68941;BME280;55982;51.476;7.552;2023-06-04T00:14:15;100217.94;;;10.04;100.00
68941;BME280;55982;51.476;7.552;2023-06-04T00:16:41;100218.91;;;10.00;100.00
68941;BME280;55982;51.476;7.552;2023-06-04T00:19:08;100212.94;;;9.95;100.00
68941;BME280;55982;51.476;7.552;2023-06-04T00:21:33;100220.09;;;9.87;100.00
68941;BME280;55982;51.476;7.552;2023-06-04T00:24:01;100221.94;;;9.82;100.00
68941;BME280;55982;51.476;7.552;2023-06-04T00:26:26;100220.31;;;9.78;100.00
68941;BME280;55982;51.476;7.552;2023-06-04T00:28:56;100215.16;;;9.75;100.00
68941;BME280;55982;51.476;7.552;2023-06-04T00:31:21;100211.88;;;9.67;100.00
68941;BME280;55982;51.476;7.552;2023-06-04T00:33:47;100215.31;;;9.69;100.00
68941;BME280;55982;51.476;7.552;2023-06-04T00:36:13;100211.91;;;9.65;100.00
68941;BME280;55982;51.476;7.552;2023-06-04T00:38:39;100213.81;;;9.57;100.00
68941;BME280;55982;51.476;7.552;2023-06-04T00:41:04;100215.56;;;9.57;100.00
68941;BME280;55982;51.476;7.552;2023-06-04T00:43:30;100222.41;;;9.64;100.00
68941;BME280;55982;51.476;7.552;2023-06-04T00:45:57;100213.59;;;9.68;100.00
68941;BME280;55982;51.476;7.552;2023-06-04T00:48:23;100213.59;;;9.68;100.00
68941;BME280;55982;51.476;7.552;2023-06-04T00:50:50;100221.44;;;9.66;100.00
68941;BME280;55982;51.476;7.552;2023-06-04T00:53:16;100219.75;;;9.65;100.00
68941;BME280;55982;51.476;7.552;2023-06-04T00:55:42;100218.88;;;9.65;100.00
68941;BME280;55982;51.476;7.552;2023-06-04T00:58:08;100215.44;;;9.63;100.00
68941;BME280;55982;51.476;7.552;2023-06-04T01:00:35;100225.19;;;9.56;100.00
68941;BME280;55982;51.476;7.552;2023-06-04T01:03:05;100223.41;;;9.57;100.00
68941;BME280;55982;51.476;7.552;2023-06-04T01:08:12;100226.50;;;9.37;100.00
68941;BME280;55982;51.476;7.552;2023-06-04T01:10:50;100217.00;;;9.33;100.00
68941;BME280;55982;51.476;7.552;2023-06-04T01:13:15;100222.25;;;9.32;100.00
68941;BME280;55982;51.476;7.552;2023-06-04T01:15:41;100223.13;;;9.31;100.00
68941;BME280;55982;51.476;7.552;2023-06-04T01:18:06;100209.22;;;9.32;100.00
68941;BME280;55982;51.476;7.552;2023-06-04T01:20:42;100224.09;;;9.27;100.00
68941;BME280;55982;51.476;7.552;2023-06-04T01:23:19;100225.00;;;9.24;100.00
68941;BME280;55982;51.476;7.552;2023-06-04T01:25:49;100232.75;;;9.29;100.00
68941;BME280;55982;51.476;7.552;2023-06-04T01:28:17;100232.63;;;9.35;100.00
68941;BME280;55982;51.476;7.552;2023-06-04T01:30:46;100230.94;;;9.32;100.00
68941;BME280;55982;51.476;7.552;2023-06-04T01:33:17;100230.16;;;9.29;100.00
68941;BME280;55982;51.476;7.552;2023-06-04T01:35:43;100224.19;;;9.23;100.00
68941;BME280;55982;51.476;7.552;2023-06-04T01:38:09;100225.19;;;9.16;100.00
68941;BME280;55982;51.476;7.552;2023-06-04T01:40:35;100234.03;;;9.09;100.00
68941;BME280;55982;51.476;7.552;2023-06-04T01:43:01;100224.53;;;9.05;100.00
68941;BME280;55982;51.476;7.552;2023-06-04T01:45:27;100220.34;;;8.98;100.00
68941;BME280;55982;51.476;7.552;2023-06-04T01:47:53;100230.91;;;8.92;100.00
68941;BME280;55982;51.476;7.552;2023-06-04T01:50:20;100221.41;;;8.88;100.00
68941;BME280;55982;51.476;7.552;2023-06-04T01:52:45;100221.53;;;8.82;100.00
68941;BME280;55982;51.476;7.552;2023-06-04T01:55:13;100215.56;;;8.77;100.00
68941;BME280;55982;51.476;7.552;2023-06-04T01:57:40;100221.72;;;8.73;100.00
68941;BME280;55982;51.476;7.552;2023-06-04T02:00:07;100221.84;;;8.67;100.00
68941;BME280;55982;51.476;7.552;2023-06-04T02:02:34;100223.69;;;8.61;100.00
68941;BME280;55982;51.476;7.552;2023-06-04T02:05:01;100219.34;;;8.61;100.00
68941;BME280;55982;51.476;7.552;2023-06-04T02:07:26;100216.78;;;8.60;100.00
68941;BME280;55982;51.476;7.552;2023-06-04T02:09:52;100217.72;;;8.56;100.00
68941;BME280;55982;51.476;7.552;2023-06-04T02:12:17;100222.06;;;8.55;100.00
68941;BME280;55982;51.476;7.552;2023-06-04T02:14:43;100212.53;;;8.54;100.00
68941;BME280;55982;51.476;7.552;2023-06-04T02:17:11;100216.94;;;8.49;100.00
68941;BME280;55982;51.476;7.552;2023-06-04T02:19:42;100222.19;;;8.48;100.00
68941;BME280;55982;51.476;7.552;2023-06-04T02:22:18;100226.50;;;8.50;100.00
68941;BME280;55982;51.476;7.552;2023-06-04T02:24:45;100222.88;;;8.57;100.00
68941;BME280;55982;51.476;7.552;2023-06-04T02:27:12;100228.00;;;8.63;100.00
68941;BME280;55982;51.476;7.552;2023-06-04T02:29:41;100230.66;;;8.60;100.00
68941;BME280;55982;51.476;7.552;2023-06-04T02:32:07;100228.09;;;8.57;100.00
68941;BME280;55982;51.476;7.552;2023-06-04T02:34:33;100226.44;;;8.55;100.00
68941;BME280;55982;51.476;7.552;2023-06-04T02:37:02;100230.00;;;8.49;100.00
68941;BME280;55982;51.476;7.552;2023-06-04T02:39:28;100233.50;;;8.48;100.00
68941;BME280;55982;51.476;7.552;2023-06-04T02:41:54;100224.94;;;8.40;100.00
68941;BME280;55982;51.476;7.552;2023-06-04T02:44:19;100228.47;;;8.39;100.00
68941;BME280;55982;51.476;7.552;2023-06-04T02:46:45;100231.91;;;8.41;100.00
68941;BME280;55982;51.476;7.552;2023-06-04T02:49:11;100227.56;;;8.40;100.00
68941;BME280;55982;51.476;7.552;2023-06-04T02:51:43;100230.25;;;8.34;100.00
68941;BME280;55982;51.476;7.552;2023-06-04T02:54:09;100225.06;;;8.34;100.00
68941;BME280;55982;51.476;7.552;2023-06-04T02:56:36;100214.63;;;8.34;100.00
68941;BME280;55982;51.476;7.552;2023-06-04T02:59:02;100225.06;;;8.34;100.00
68941;BME280;55982;51.476;7.552;2023-06-04T03:01:28;100229.44;;;8.32;100.00
68941;BME280;55982;51.476;7.552;2023-06-04T03:03:54;100230.38;;;8.28;100.00
68941;BME280;55982;51.476;7.552;2023-06-04T03:06:21;100226.94;;;8.26;100.00
68941;BME280;55982;51.476;7.552;2023-06-04T03:08:48;100218.97;;;8.35;100.00
68941;BME280;55982;51.476;7.552;2023-06-04T03:11:14;100219.81;;;8.37;100.00
68941;BME280;55982;51.476;7.552;2023-06-04T03:13:40;100223.25;;;8.38;100.00
68941;BME280;55982;51.476;7.552;2023-06-04T03:16:05;100222.41;;;8.37;100.00
68941;BME280;55982;51.476;7.552;2023-06-04T03:18:39;100227.59;;;8.39;100.00
68941;BME280;55982;51.476;7.552;2023-06-04T03:21:05;100230.25;;;8.34;100.00
68941;BME280;55982;51.476;7.552;2023-06-04T03:23:31;100226.06;;;8.27;100.00
68941;BME280;55982;51.476;7.552;2023-06-04T03:25:56;100221.81;;;8.20;100.00
68941;BME280;55982;51.476;7.552;2023-06-04T03:28:22;100227.13;;;8.14;100.00
68941;BME280;55982;51.476;7.552;2023-06-04T03:30:47;100229.75;;;8.12;100.00
68941;BME280;55982;51.476;7.552;2023-06-04T03:33:13;100228.94;;;8.09;100.00
68941;BME280;55982;51.476;7.552;2023-06-04T03:35:40;100229.06;;;8.03;100.00
68941;BME280;55982;51.476;7.552;2023-06-04T03:38:05;100229.06;;;8.03;100.00
68941;BME280;55982;51.476;7.552;2023-06-04T03:40:31;100239.41;;;8.06;100.00
68941;BME280;55982;51.476;7.552;2023-06-04T03:42:56;100235.88;;;8.10;100.00
68941;BME280;55982;51.476;7.552;2023-06-04T03:45:22;100241.94;;;8.12;100.00
68941;BME280;55982;51.476;7.552;2023-06-04T03:47:47;100234.00;;;8.18;100.00
68941;BME280;55982;51.476;7.552;2023-06-04T03:50:13;100232.25;;;8.20;100.00
68941;BME280;55982;51.476;7.552;2023-06-04T03:52:38;100237.31;;;8.29;100.00
68941;BME280;55982;51.476;7.552;2023-06-04T03:55:04;100245.91;;;8.34;100.00
68941;BME280;55982;51.476;7.552;2023-06-04T03:57:29;100247.53;;;8.41;100.00
68941;BME280;55982;51.476;7.552;2023-06-04T03:59:56;100243.84;;;8.51;100.00
68941;BME280;55982;51.476;7.552;2023-06-04T04:02:21;100247.19;;;8.59;100.00
68941;BME280;55982;51.476;7.552;2023-06-04T04:04:46;100248.84;;;8.63;100.00
68941;BME280;55982;51.476;7.552;2023-06-04T04:07:12;100245.59;;;8.52;100.00
68941;BME280;55982;51.476;7.552;2023-06-04T04:09:37;100247.44;;;8.47;100.00
68941;BME280;55982;51.476;7.552;2023-06-04T04:12:04;100246.50;;;8.50;100.00
68941;BME280;55982;51.476;7.552;2023-06-04T04:14:29;100248.81;;;8.66;100.00
68941;BME280;55982;51.476;7.552;2023-06-04T04:16:55;100245.13;;;8.76;100.00
68941;BME280;55982;51.476;7.552;2023-06-04T04:19:20;100251.03;;;8.86;100.00
68941;BME280;55982;51.476;7.552;2023-06-04T04:21:47;100245.56;;;8.98;100.00
68941;BME280;55982;51.476;7.552;2023-06-04T04:24:23;100245.31;;;9.11;100.00
68941;BME280;55982;51.476;7.552;2023-06-04T04:26:48;100244.28;;;9.18;100.00
68941;BME280;55982;51.476;7.552;2023-06-04T04:29:17;100246.75;;;9.24;100.00
68941;BME280;55982;51.476;7.552;2023-06-04T04:31:50;100241.69;;;9.17;100.00
68941;BME280;55982;51.476;7.552;2023-06-04T04:34:16;100241.41;;;9.31;100.00
68941;BME280;55982;51.476;7.552;2023-06-04T04:36:43;100234.19;;;9.43;100.00
68941;BME280;55982;51.476;7.552;2023-06-04T04:39:09;100233.66;;;9.66;100.00
68941;BME280;55982;51.476;7.552;2023-06-04T04:41:37;100236.06;;;9.75;100.00
68941;BME280;55982;51.476;7.552;2023-06-04T04:44:04;100237.50;;;9.88;100.00
68941;BME280;55982;51.476;7.552;2023-06-04T04:46:30;100235.56;;;9.96;100.00
68941;BME280;55982;51.476;7.552;2023-06-04T04:48:56;100244.97;;;10.03;100.00
68941;BME280;55982;51.476;7.552;2023-06-04T04:51:21;100238.75;;;10.07;100.00
68941;BME280;55982;51.476;7.552;2023-06-04T04:53:47;100233.28;;;10.19;100.00
68941;BME280;55982;51.476;7.552;2023-06-04T04:56:13;100238.22;;;10.31;100.00
68941;BME280;55982;51.476;7.552;2023-06-04T04:58:38;100238.88;;;10.39;100.00
68941;BME280;55982;51.476;7.552;2023-06-04T05:01:04;100241.25;;;10.48;100.00
68941;BME280;55982;51.476;7.552;2023-06-04T05:03:29;100235.75;;;10.57;100.00
68941;BME280;55982;51.476;7.552;2023-06-04T05:05:55;100245.31;;;10.60;100.00
68941;BME280;55982;51.476;7.552;2023-06-04T05:08:20;100238.78;;;10.74;100.00
68941;BME280;55982;51.476;7.552;2023-06-04T05:10:46;100240.25;;;10.84;100.00
68941;BME280;55982;51.476;7.552;2023-06-04T05:13:12;100244.28;;;10.96;100.00
68941;BME280;55982;51.476;7.552;2023-06-04T05:15:37;100240.53;;;11.06;100.00
68941;BME280;55982;51.476;7.552;2023-06-04T05:18:05;100247.16;;;11.18;100.00
68941;BME280;55982;51.476;7.552;2023-06-04T05:20:30;100249.41;;;11.30;100.00
68941;BME280;55982;51.476;7.552;2023-06-04T05:22:56;100258.88;;;11.35;100.00
68941;BME280;55982;51.476;7.552;2023-06-04T05:25:22;100254.41;;;11.39;100.00
68941;BME280;55982;51.476;7.552;2023-06-04T05:27:47;100246.25;;;11.48;100.00
68941;BME280;55982;51.476;7.552;2023-06-04T05:30:14;100248.88;;;11.48;100.00
68941;BME280;55982;51.476;7.552;2023-06-04T05:32:40;100252.59;;;11.41;100.00
68941;BME280;55982;51.476;7.552;2023-06-04T05:35:06;100247.84;;;11.53;100.00
68941;BME280;55982;51.476;7.552;2023-06-04T05:37:33;100255.38;;;11.64;100.00
68941;BME280;55982;51.476;7.552;2023-06-04T05:40:03;100252.56;;;11.71;100.00
68941;BME280;55982;51.476;7.552;2023-06-04T05:42:30;100251.41;;;11.80;100.00
68941;BME280;55982;51.476;7.552;2023-06-04T05:44:56;100255.31;;;11.94;100.00
68941;BME280;55982;51.476;7.552;2023-06-04T05:47:21;100262.63;;;12.11;100.00
68941;BME280;55982;51.476;7.552;2023-06-04T05:49:47;100250.72;;;12.01;100.00
68941;BME280;55982;51.476;7.552;2023-06-04T05:52:13;100254.63;;;12.16;100.00
68941;BME280;55982;51.476;7.552;2023-06-04T05:54:38;100260.00;;;12.37;100.00
68941;BME280;55982;51.476;7.552;2023-06-04T05:57:05;100256.38;;;12.41;100.00
68941;BME280;55982;51.476;7.552;2023-06-04T05:59:31;100256.38;;;12.41;100.00
68941;BME280;55982;51.476;7.552;2023-06-04T06:01:57;100258.53;;;12.79;100.00
68941;BME280;55982;51.476;7.552;2023-06-04T06:04:22;100258.66;;;12.76;100.00
68941;BME280;55982;51.476;7.552;2023-06-04T06:06:48;100256.94;;;13.00;100.00
68941;BME280;55982;51.476;7.552;2023-06-04T06:09:16;100267.72;;;12.93;100.00
68941;BME280;55982;51.476;7.552;2023-06-04T06:11:42;100275.09;;;13.08;100.00
68941;BME280;55982;51.476;7.552;2023-06-04T06:14:08;100264.09;;;13.20;100.00
68941;BME280;55982;51.476;7.552;2023-06-04T06:16:33;100271.53;;;13.55;100.00
68941;BME280;55982;51.476;7.552;2023-06-04T06:19:00;100268.13;;;13.53;100.00
68941;BME280;55982;51.476;7.552;2023-06-04T06:21:25;100274.19;;;13.55;100.00
68941;BME280;55982;51.476;7.552;2023-06-04T06:23:51;100280.28;;;13.78;100.00
68941;BME280;55982;51.476;7.552;2023-06-04T06:26:17;100280.03;;;13.85;100.00
68941;BME280;55982;51.476;7.552;2023-06-04T06:28:42;100285.56;;;14.43;100.00
68941;BME280;55982;51.476;7.552;2023-06-04T06:31:08;100280.28;;;15.24;97.09
68941;BME280;55982;51.476;7.552;2023-06-04T06:33:33;100286.06;;;15.52;100.00
68941;BME280;55982;51.476;7.552;2023-06-04T06:35:59;100285.19;;;16.07;97.32
68941;BME280;55982;51.476;7.552;2023-06-04T06:38:27;100277.22;;;15.53;93.86
68941;BME280;55982;51.476;7.552;2023-06-04T06:40:52;100291.38;;;16.06;99.76
68941;BME280;55982;51.476;7.552;2023-06-04T06:43:18;100287.00;;;15.31;90.22
68941;BME280;55982;51.476;7.552;2023-06-04T06:45:44;100293.56;;;15.41;89.02
68941;BME280;55982;51.476;7.552;2023-06-04T06:48:09;100296.31;;;16.67;89.12
68941;BME280;55982;51.476;7.552;2023-06-04T06:50:35;100296.78;;;16.92;82.50
68941;BME280;55982;51.476;7.552;2023-06-04T06:53:03;100301.31;;;16.01;82.62
68941;BME280;55982;51.476;7.552;2023-06-04T06:55:29;100299.88;;;15.76;82.93
68941;BME280;55982;51.476;7.552;2023-06-04T06:57:55;100307.44;;;16.37;89.38
68941;BME280;55982;51.476;7.552;2023-06-04T07:00:20;100301.97;;;16.23;85.07
68941;BME280;55982;51.476;7.552;2023-06-04T07:02:46;100303.94;;;16.90;91.51
68941;BME280;55982;51.476;7.552;2023-06-04T07:05:11;100301.47;;;18.16;85.36
68941;BME280;55982;51.476;7.552;2023-06-04T07:07:39;100305.56;;;18.53;81.22
68941;BME280;55982;51.476;7.552;2023-06-04T07:10:05;100300.34;;;18.81;85.56
68941;BME280;55982;51.476;7.552;2023-06-04T07:12:31;100302.66;;;17.79;74.91
68941;BME280;55982;51.476;7.552;2023-06-04T07:14:56;100305.88;;;17.53;73.85
68941;BME280;55982;51.476;7.552;2023-06-04T07:17:22;100298.59;;;17.89;72.40
68941;BME280;55982;51.476;7.552;2023-06-04T07:19:47;100301.47;;;18.16;72.31
68941;BME280;55982;51.476;7.552;2023-06-04T07:22:13;100314.75;;;19.21;76.21
68941;BME280;55982;51.476;7.552;2023-06-04T07:24:41;100301.97;;;18.38;70.90
68941;BME280;55982;51.476;7.552;2023-06-04T07:27:13;100304.69;;;18.37;69.81
68941;BME280;55982;51.476;7.552;2023-06-04T07:29:39;100308.72;;;19.47;71.78
68941;BME280;55982;51.476;7.552;2023-06-04T07:32:05;100307.88;;;19.32;69.50
68941;BME280;55982;51.476;7.552;2023-06-04T07:34:31;100303.88;;;19.81;68.83
68941;BME280;55982;51.476;7.552;2023-06-04T07:36:56;100306.69;;;20.47;70.48
68941;BME280;55982;51.476;7.552;2023-06-04T07:39:22;100307.78;;;20.70;63.25
68941;BME280;55982;51.476;7.552;2023-06-04T07:41:47;100307.00;;;20.82;63.90
68941;BME280;55982;51.476;7.552;2023-06-04T07:44:13;100304.44;;;20.93;64.64
68941;BME280;55982;51.476;7.552;2023-06-04T07:46:38;100306.19;;;21.19;63.61
68941;BME280;55982;51.476;7.552;2023-06-04T07:49:03;100301.06;;;21.66;63.50
68941;BME280;55982;51.476;7.552;2023-06-04T07:51:29;100305.53;;;21.66;58.36
68941;BME280;55982;51.476;7.552;2023-06-04T07:53:54;100311.44;;;20.69;61.68
68941;BME280;55982;51.476;7.552;2023-06-04T07:56:20;100310.56;;;20.68;57.31
68941;BME280;55982;51.476;7.552;2023-06-04T07:58:45;100313.50;;;20.11;58.92
68941;BME280;55982;51.476;7.552;2023-06-04T08:01:11;100315.59;;;20.20;60.75
68941;BME280;55982;51.476;7.552;2023-06-04T08:03:36;100308.97;;;21.05;59.21
68941;BME280;55982;51.476;7.552;2023-06-04T08:06:02;100312.25;;;20.69;55.86
68941;BME280;55982;51.476;7.552;2023-06-04T08:08:27;100319.19;;;21.11;54.59
68941;BME280;55982;51.476;7.552;2023-06-04T08:10:53;100321.72;;;22.01;56.30
68941;BME280;55982;51.476;7.552;2023-06-04T08:13:18;100326.59;;;22.66;55.61
68941;BME280;55982;51.476;7.552;2023-06-04T08:15:43;100312.59;;;21.29;55.33
68941;BME280;55982;51.476;7.552;2023-06-04T08:18:09;100313.78;;;22.12;54.82
68941;BME280;55982;51.476;7.552;2023-06-04T08:20:34;100317.28;;;20.86;55.48
68941;BME280;55982;51.476;7.552;2023-06-04T08:23:00;100314.50;;;21.52;55.76
68941;BME280;55982;51.476;7.552;2023-06-04T08:25:25;100312.16;;;22.22;54.86
68941;BME280;55982;51.476;7.552;2023-06-04T08:27:51;100316.22;;;23.20;56.92
68941;BME280;55982;51.476;7.552;2023-06-04T08:30:16;100314.84;;;22.69;53.77
68941;BME280;55982;51.476;7.552;2023-06-04T08:32:42;100324.38;;;22.01;55.40
68941;BME280;55982;51.476;7.552;2023-06-04T08:35:07;100312.59;;;21.54;52.43
68941;BME280;55982;51.476;7.552;2023-06-04T08:37:33;100315.72;;;20.84;54.79
68941;BME280;55982;51.476;7.552;2023-06-04T08:39:58;100318.31;;;22.58;56.95
68941;BME280;55982;51.476;7.552;2023-06-04T08:42:30;100320.28;;;22.91;51.92
68941;BME280;55982;51.476;7.552;2023-06-04T08:44:57;100324.81;;;22.31;58.12
68941;BME280;55982;51.476;7.552;2023-06-04T08:47:24;100326.13;;;23.07;53.81
68941;BME280;55982;51.476;7.552;2023-06-04T08:49:52;100332.44;;;23.06;57.83
68941;BME280;55982;51.476;7.552;2023-06-04T08:52:17;100330.94;;;22.91;53.09
68941;BME280;55982;51.476;7.552;2023-06-04T08:54:48;100326.94;;;22.62;53.01
68941;BME280;55982;51.476;7.552;2023-06-04T08:57:14;100327.91;;;23.30;52.06
68941;BME280;55982;51.476;7.552;2023-06-04T08:59:39;100334.13;;;23.42;51.29
68941;BME280;55982;51.476;7.552;2023-06-04T09:02:06;100330.63;;;23.52;52.00
68941;BME280;55982;51.476;7.552;2023-06-04T09:04:33;100324.00;;;22.18;51.30
68941;BME280;55982;51.476;7.552;2023-06-04T09:07:01;100326.25;;;23.85;54.73
68941;BME280;55982;51.476;7.552;2023-06-04T09:09:28;100326.00;;;21.91;51.82
68941;BME280;55982;51.476;7.552;2023-06-04T09:11:56;100327.69;;;23.33;51.30
68941;BME280;55982;51.476;7.552;2023-06-04T09:14:23;100325.94;;;24.43;51.71
68941;BME280;55982;51.476;7.552;2023-06-04T09:16:50;100324.06;;;24.97;47.99
68941;BME280;55982;51.476;7.552;2023-06-04T09:19:17;100325.88;;;23.89;46.36
68941;BME280;55982;51.476;7.552;2023-06-04T09:22:09;100329.59;;;24.42;45.52
68941;BME280;55982;51.476;7.552;2023-06-04T09:24:43;100322.81;;;24.70;47.51
68941;BME280;55982;51.476;7.552;2023-06-04T09:27:19;100333.91;;;23.10;48.00
68941;BME280;55982;51.476;7.552;2023-06-04T09:29:58;100326.25;;;23.74;50.99
68941;BME280;55982;51.476;7.552;2023-06-04T09:32:25;100324.44;;;24.07;48.08
68941;BME280;55982;51.476;7.552;2023-06-04T09:34:51;100322.03;;;23.14;49.06
68941;BME280;55982;51.476;7.552;2023-06-04T09:37:18;100326.81;;;24.43;49.00
68941;BME280;55982;51.476;7.552;2023-06-04T09:39:52;100318.00;;;24.95;47.11
68941;BME280;55982;51.476;7.552;2023-06-04T09:42:19;100315.25;;;24.43;48.61
68941;BME280;55982;51.476;7.552;2023-06-04T09:44:44;100320.72;;;24.30;49.35
68941;BME280;55982;51.476;7.552;2023-06-04T09:47:16;100310.47;;;26.21;47.17
68941;BME280;55982;51.476;7.552;2023-06-04T09:49:45;100325.88;;;25.89;48.37
68941;BME280;55982;51.476;7.552;2023-06-04T09:52:11;100325.59;;;24.79;44.95
68941;BME280;55982;51.476;7.552;2023-06-04T09:54:38;100318.25;;;24.07;45.63
68941;BME280;55982;51.476;7.552;2023-06-04T09:57:14;100333.75;;;24.35;44.16
68941;BME280;55982;51.476;7.552;2023-06-04T09:59:43;100331.16;;;24.87;45.19
68941;BME280;55982;51.476;7.552;2023-06-04T10:02:11;100318.47;;;24.04;44.68
68941;BME280;55982;51.476;7.552;2023-06-04T10:04:40;100320.16;;;23.49;45.12
68941;BME280;55982;51.476;7.552;2023-06-04T10:07:08;100314.13;;;23.92;43.62
68941;BME280;55982;51.476;7.552;2023-06-04T10:09:34;100318.22;;;23.85;47.28
68941;BME280;55982;51.476;7.552;2023-06-04T10:12:00;100306.56;;;23.75;44.16
68941;BME280;55982;51.476;7.552;2023-06-04T10:15:22;100311.25;;;25.63;43.80
68941;BME280;55982;51.476;7.552;2023-06-04T10:17:29;100315.41;;;25.86;43.92
68941;BME280;55982;51.476;7.552;2023-06-04T10:19:56;100316.41;;;24.72;43.23
68941;BME280;55982;51.476;7.552;2023-06-04T10:22:23;100313.03;;;24.48;42.21
68941;BME280;55982;51.476;7.552;2023-06-04T10:24:49;100314.19;;;24.66;43.32
68941;BME280;55982;51.476;7.552;2023-06-04T10:27:18;100304.97;;;24.59;42.56
68941;BME280;55982;51.476;7.552;2023-06-04T10:29:45;100307.47;;;25.45;41.67
68941;BME280;55982;51.476;7.552;2023-06-04T10:32:11;100310.16;;;25.45;42.74
68941;BME280;55982;51.476;7.552;2023-06-04T10:34:37;100298.22;;;25.98;42.48
68941;BME280;55982;51.476;7.552;2023-06-04T10:37:02;100301.13;;;26.15;44.28
68941;BME280;55982;51.476;7.552;2023-06-04T10:39:29;100307.41;;;25.14;41.65
68941;BME280;55982;51.476;7.552;2023-06-04T10:42:04;100302.94;;;24.83;43.74
68941;BME280;55982;51.476;7.552;2023-06-04T10:44:46;100303.00;;;25.34;42.61
68941;BME280;55982;51.476;7.552;2023-06-04T10:47:23;100308.81;;;25.60;40.38
68941;BME280;55982;51.476;7.552;2023-06-04T10:49:53;100301.59;;;25.51;43.31
68941;BME280;55982;51.476;7.552;2023-06-04T10:52:19;100301.06;;;25.57;40.77
68941;BME280;55982;51.476;7.552;2023-06-04T10:54:46;100309.00;;;25.68;41.03
68941;BME280;55982;51.476;7.552;2023-06-04T10:57:17;100309.91;;;24.43;42.75
68941;BME280;55982;51.476;7.552;2023-06-04T10:59:59;100296.81;;;23.96;40.16
68941;BME280;55982;51.476;7.552;2023-06-04T11:02:26;100294.78;;;25.77;40.54
68941;BME280;55982;51.476;7.552;2023-06-04T11:05:02;100302.09;;;25.75;39.87
68941;BME280;55982;51.476;7.552;2023-06-04T11:07:43;100301.84;;;25.78;40.50
68941;BME280;55982;51.476;7.552;2023-06-04T11:10:11;100304.78;;;25.45;40.19
68941;BME280;55982;51.476;7.552;2023-06-04T11:15:08;100302.31;;;26.51;45.58
68941;BME280;55982;51.476;7.552;2023-06-04T11:17:33;100287.19;;;25.82;41.13
68941;BME280;55982;51.476;7.552;2023-06-04T11:19:59;100291.56;;;26.51;39.46
68941;BME280;55982;51.476;7.552;2023-06-04T11:22:25;100293.31;;;26.90;38.36
68941;BME280;55982;51.476;7.552;2023-06-04T11:24:57;100286.19;;;28.46;41.64
68941;BME280;55982;51.476;7.552;2023-06-04T11:27:24;100287.47;;;25.07;38.91
68941;BME280;55982;51.476;7.552;2023-06-04T11:29:51;100278.56;;;26.18;40.66
68941;BME280;55982;51.476;7.552;2023-06-04T11:32:23;100284.75;;;27.43;40.96
68941;BME280;55982;51.476;7.552;2023-06-04T11:34:48;100281.44;;;26.55;38.74
68941;BME280;55982;51.476;7.552;2023-06-04T11:37:14;100282.84;;;26.87;40.69
68941;BME280;55982;51.476;7.552;2023-06-04T11:39:40;100287.94;;;26.90;41.35
68941;BME280;55982;51.476;7.552;2023-06-04T11:42:08;100283.94;;;26.18;39.95
68941;BME280;55982;51.476;7.552;2023-06-04T11:44:34;100283.09;;;27.03;38.71
68941;BME280;55982;51.476;7.552;2023-06-04T11:46:59;100289.53;;;27.49;38.16
68941;BME280;55982;51.476;7.552;2023-06-04T11:49:25;100276.06;;;27.95;38.35
68941;BME280;55982;51.476;7.552;2023-06-04T11:51:53;100281.13;;;26.67;37.31
68941;BME280;55982;51.476;7.552;2023-06-04T11:54:20;100280.97;;;26.40;39.50
68941;BME280;55982;51.476;7.552;2023-06-04T11:56:48;100284.94;;;26.93;40.40
68941;BME280;55982;51.476;7.552;2023-06-04T11:59:16;100280.81;;;26.42;39.17
68941;BME280;55982;51.476;7.552;2023-06-04T12:01:43;100283.44;;;26.81;41.12
68941;BME280;55982;51.476;7.552;2023-06-04T12:06:38;100272.66;;;28.73;34.95
68941;BME280;55982;51.476;7.552;2023-06-04T12:09:04;100269.88;;;29.00;38.11
68941;BME280;55982;51.476;7.552;2023-06-04T12:11:34;100272.13;;;27.80;37.33
68941;BME280;55982;51.476;7.552;2023-06-04T12:14:06;100270.69;;;28.57;37.88
68941;BME280;55982;51.476;7.552;2023-06-04T12:16:33;100267.34;;;28.01;36.79
68941;BME280;55982;51.476;7.552;2023-06-04T12:19:12;100264.75;;;26.89;38.30
68941;BME280;55982;51.476;7.552;2023-06-04T12:21:38;100260.34;;;27.07;36.67
68941;BME280;55982;51.476;7.552;2023-06-04T12:24:07;100258.78;;;26.19;38.09
68941;BME280;55982;51.476;7.552;2023-06-04T12:26:33;100262.03;;;27.64;35.06
68941;BME280;55982;51.476;7.552;2023-06-04T12:29:13;100258.75;;;27.97;38.70
68941;BME280;55982;51.476;7.552;2023-06-04T12:31:43;100256.38;;;27.94;38.76
68941;BME280;55982;51.476;7.552;2023-06-04T12:34:11;100259.47;;;27.63;37.55
68941;BME280;55982;51.476;7.552;2023-06-04T12:36:37;100246.19;;;27.61;35.31
68941;BME280;55982;51.476;7.552;2023-06-04T12:39:04;100254.22;;;27.98;37.09
68941;BME280;55982;51.476;7.552;2023-06-04T12:41:31;100256.47;;;27.39;39.63
68941;BME280;55982;51.476;7.552;2023-06-04T12:43:58;100253.59;;;27.77;36.87
68941;BME280;55982;51.476;7.552;2023-06-04T12:46:24;100261.38;;;28.07;35.28
68941;BME280;55982;51.476;7.552;2023-06-04T12:48:50;100252.53;;;28.59;34.35
68941;BME280;55982;51.476;7.552;2023-06-04T12:51:17;100252.31;;;27.81;36.07
68941;BME280;55982;51.476;7.552;2023-06-04T12:53:43;100256.78;;;27.90;37.85
68941;BME280;55982;51.476;7.552;2023-06-04T12:56:09;100251.47;;;27.44;35.01